Central Kentucky Regional (RGA)

 

Airport Diagram
No Airport Diagram Available
Current Weather/Forecast (IFR Conditions)
METAR KRGA 211455Z AUTO 23007KT 10SM OVC006 03/03 A2994 RMK AO2
TAF

Airport Information

All Charts
General
Chart Name View
TAKEOFF MINIMUMS
ALTERNATE MINIMUMS
TAKEOFF MINIMUMS
ALTERNATE MINIMUMS

Approaches
Chart Name Download
RNAV (GPS) RWY 18
RNAV (GPS) RWY 36
VOR RWY 18
RNAV (GPS) RWY 18
RNAV (GPS) RWY 36
VOR RWY 18


Airport Statistics
Departures Arrivals Local
All Collected Stats since June 2016: 14 8 1
2021 Stats: 0 0 0
January Stats: 0 0 0

Inbound Traffic (Arrivals) - 0

No inbound traffic.


Outbound Traffic (Departures) - 0

No outbound traffic.


Local Traffic (Pattern) - 0

No local traffic.